createdAt,value
2019-02-17T00:00:03.014Z,990.68
2019-02-17T00:01:03.004Z,990.72
2019-02-17T00:02:03.055Z,990.75
2019-02-17T00:03:02.964Z,990.71
2019-02-17T00:04:04.065Z,990.77
2019-02-17T00:05:03.065Z,990.71
2019-02-17T00:06:02.940Z,990.73
2019-02-17T00:07:02.996Z,990.69
2019-02-17T00:08:02.918Z,990.74
2019-02-17T00:09:02.977Z,990.73
2019-02-17T00:10:02.887Z,990.73
2019-02-17T00:11:02.971Z,990.74
2019-02-17T00:12:02.871Z,990.78
2019-02-17T00:13:02.899Z,990.72
2019-02-17T00:14:02.859Z,990.74
2019-02-17T00:15:02.941Z,990.70
2019-02-17T00:16:02.910Z,990.77
2019-02-17T00:17:02.810Z,990.79
2019-02-17T00:18:02.840Z,990.74
2019-02-17T00:19:02.812Z,990.78
2019-02-17T00:20:02.891Z,990.74
2019-02-17T00:21:02.772Z,990.73
2019-02-17T00:22:02.822Z,990.74
2019-02-17T00:23:02.753Z,990.78
2019-02-17T00:24:02.803Z,990.73
2019-02-17T00:25:02.733Z,990.78
2019-02-17T00:26:02.717Z,990.74
2019-02-17T00:27:02.704Z,990.75
2019-02-17T00:28:02.725Z,990.78
2019-02-17T00:29:02.696Z,990.79
2019-02-17T00:30:02.766Z,990.77
2019-02-17T00:31:02.657Z,990.77
2019-02-17T00:32:02.697Z,990.80
2019-02-17T00:33:02.636Z,990.81
2019-02-17T00:34:02.687Z,990.77
2019-02-17T00:35:02.620Z,990.78
2019-02-17T00:36:02.685Z,990.73
2019-02-17T00:37:02.578Z,990.77
2019-02-17T00:38:02.609Z,990.77
2019-02-17T00:39:02.579Z,990.84
2019-02-17T00:40:04.589Z,990.77
2019-02-17T00:41:02.549Z,990.77
2019-02-17T00:42:02.540Z,990.84
2019-02-17T00:43:02.540Z,990.82
2019-02-17T00:44:02.532Z,990.76
2019-02-17T00:45:02.584Z,990.75
2019-02-17T00:46:02.482Z,990.80
2019-02-17T00:47:02.475Z,990.82
2019-02-17T00:48:02.455Z,990.80
2019-02-17T00:49:02.493Z,990.83
2019-02-17T00:50:02.436Z,990.82
2019-02-17T00:51:02.484Z,990.83
2019-02-17T00:52:02.417Z,990.82
2019-02-17T00:53:02.527Z,990.86
2019-02-17T00:54:02.405Z,990.84
2019-02-17T00:55:02.455Z,990.84
2019-02-17T00:56:02.371Z,990.87
2019-02-17T00:57:03.423Z,990.90
2019-02-17T00:58:02.347Z,990.90
2019-02-17T00:59:09.730Z,990.87
2019-02-17T01:00:03.329Z,990.85
2019-02-17T01:01:02.371Z,990.87
2019-02-17T01:02:02.314Z,990.83
2019-02-17T01:03:02.305Z,990.87
2019-02-17T01:04:02.293Z,990.85
2019-02-17T01:05:02.395Z,990.89
2019-02-17T01:06:02.263Z,990.87
2019-02-17T01:07:02.284Z,990.94
2019-02-17T01:08:02.244Z,990.91
2019-02-17T01:09:02.354Z,990.91
2019-02-17T01:10:02.235Z,990.95
2019-02-17T01:11:02.262Z,990.93
2019-02-17T01:12:02.195Z,990.92
2019-02-17T01:13:02.186Z,990.91
2019-02-17T01:14:02.176Z,990.89
2019-02-17T01:15:03.197Z,990.93
2019-02-17T01:16:02.157Z,990.95
2019-02-17T01:17:02.158Z,990.91
2019-02-17T01:18:02.128Z,990.91
2019-02-17T01:19:02.118Z,990.90
2019-02-17T01:20:03.140Z,990.91
2019-02-17T01:21:02.099Z,990.93
2019-02-17T01:22:02.198Z,990.88
2019-02-17T01:23:02.079Z,990.86
2019-02-17T01:24:02.065Z,990.84
2019-02-17T01:25:02.063Z,990.84
2019-02-17T01:26:02.071Z,990.85
2019-02-17T01:27:02.021Z,990.89
2019-02-17T01:28:02.113Z,990.90
2019-02-17T01:29:02.071Z,990.85
2019-02-17T01:30:02.007Z,990.85
2019-02-17T01:31:02.013Z,990.89
2019-02-17T01:32:01.962Z,990.93
2019-02-17T01:33:02.042Z,990.93
2019-02-17T01:34:01.943Z,990.88
2019-02-17T01:35:02.024Z,990.87
2019-02-17T01:36:01.914Z,990.91
2019-02-17T01:37:02.934Z,990.89
2019-02-17T01:38:01.895Z,990.92
2019-02-17T01:39:01.945Z,990.89
2019-02-17T01:40:02.985Z,990.90
2019-02-17T01:41:01.865Z,990.85
2019-02-17T01:42:01.956Z,990.85
2019-02-17T01:43:01.839Z,990.84
2019-02-17T01:44:01.991Z,990.82
2019-02-17T01:45:01.838Z,990.88
2019-02-17T01:46:01.927Z,990.83
2019-02-17T01:47:01.811Z,990.84
2019-02-17T01:48:01.868Z,990.86
2019-02-17T01:49:01.779Z,990.85
2019-02-17T01:50:01.780Z,990.83
2019-02-17T01:51:01.758Z,990.81
2019-02-17T01:52:01.839Z,990.86
2019-02-17T01:53:01.741Z,990.88
2019-02-17T01:54:01.770Z,990.83
2019-02-17T01:55:01.730Z,990.87
2019-02-17T01:56:01.811Z,990.87
2019-02-17T01:57:01.690Z,990.85
2019-02-17T01:58:01.741Z,990.86
2019-02-17T01:59:01.671Z,990.89
2019-02-17T02:00:01.721Z,990.86
2019-02-17T02:01:01.632Z,990.85
2019-02-17T02:02:01.712Z,990.83
2019-02-17T02:03:01.623Z,990.86
2019-02-17T02:04:01.653Z,990.82
2019-02-17T02:05:01.603Z,990.80
2019-02-17T02:06:01.574Z,990.81
2019-02-17T02:07:02.680Z,990.84
2019-02-17T02:08:01.554Z,990.82
2019-02-17T02:09:02.604Z,990.88
2019-02-17T02:10:01.545Z,990.90
2019-02-17T02:11:01.525Z,990.88
2019-02-17T02:12:01.505Z,990.89
2019-02-17T02:13:01.556Z,990.86
2019-02-17T02:14:01.488Z,990.88
2019-02-17T02:15:01.537Z,990.86
2019-02-17T02:16:01.467Z,990.89
2019-02-17T02:17:01.531Z,990.85
2019-02-17T02:18:01.443Z,990.85
2019-02-17T02:19:01.458Z,990.87
2019-02-17T02:20:01.439Z,990.86
2019-02-17T02:21:01.498Z,990.82
2019-02-17T02:22:01.399Z,990.83
2019-02-17T02:23:01.440Z,990.80
2019-02-17T02:24:01.380Z,990.86
2019-02-17T02:25:03.469Z,990.81
2019-02-17T02:26:01.361Z,990.81
2019-02-17T02:27:01.351Z,990.82
2019-02-17T02:28:01.341Z,990.79
2019-02-17T02:29:01.353Z,990.79
2019-02-17T02:30:01.341Z,990.76
2019-02-17T02:31:01.403Z,990.76
2019-02-17T02:32:01.296Z,990.74
2019-02-17T02:33:02.346Z,990.72
2019-02-17T02:34:01.274Z,990.80
2019-02-17T02:35:01.305Z,990.81
2019-02-17T02:36:01.244Z,990.75
2019-02-17T02:37:01.294Z,990.75
2019-02-17T02:38:01.224Z,990.75
2019-02-17T02:39:01.326Z,990.68
2019-02-17T02:40:01.215Z,990.73
2019-02-17T02:41:01.270Z,990.72
2019-02-17T02:42:01.189Z,990.71
2019-02-17T02:43:01.166Z,990.66
2019-02-17T02:44:01.152Z,990.66
2019-02-17T02:45:02.197Z,990.70
2019-02-17T02:46:01.128Z,990.66
2019-02-17T02:47:01.167Z,990.67
2019-02-17T02:48:02.158Z,990.65
2019-02-17T02:49:01.088Z,990.66
2019-02-17T02:50:02.145Z,990.61
2019-02-17T02:51:01.072Z,990.60
2019-02-17T02:52:01.109Z,990.62
2019-02-17T02:53:01.112Z,990.57
2019-02-17T02:54:01.140Z,990.59
2019-02-17T02:55:01.041Z,990.59
2019-02-17T02:56:01.081Z,990.57
2019-02-17T02:57:01.003Z,990.59
2019-02-17T02:58:01.011Z,990.54
2019-02-17T02:59:00.982Z,990.62
2019-02-17T03:00:02.015Z,990.56
2019-02-17T03:01:00.962Z,990.53
2019-02-17T03:02:00.992Z,990.54
2019-02-17T03:03:00.943Z,990.49
2019-02-17T03:04:00.935Z,990.55
2019-02-17T03:05:00.998Z,990.50
2019-02-17T03:06:00.926Z,990.49
2019-02-17T03:07:00.926Z,990.55
2019-02-17T03:08:00.895Z,990.49
2019-02-17T03:09:00.876Z,990.49
2019-02-17T03:10:00.869Z,990.49
2019-02-17T03:11:00.947Z,990.43
2019-02-17T03:12:00.847Z,990.47
2019-02-17T03:13:00.937Z,990.45
2019-02-17T03:14:00.827Z,990.39
2019-02-17T03:15:00.877Z,990.42
2019-02-17T03:16:00.818Z,990.40
2019-02-17T03:17:02.860Z,990.40
2019-02-17T03:18:00.779Z,990.43
2019-02-17T03:19:00.839Z,990.38
2019-02-17T03:20:00.759Z,990.38
2019-02-17T03:21:00.830Z,990.42
2019-02-17T03:22:00.729Z,990.40
2019-02-17T03:23:01.730Z,990.43
2019-02-17T03:24:00.710Z,990.42
2019-02-17T03:25:00.691Z,990.38
2019-02-17T03:26:00.752Z,990.48
2019-02-17T03:27:00.673Z,990.38
2019-02-17T03:28:00.752Z,990.41
2019-02-17T03:29:00.647Z,990.48
2019-02-17T03:30:04.712Z,990.49
2019-02-17T03:31:01.635Z,990.44
2019-02-17T03:32:00.727Z,990.51
2019-02-17T03:33:00.621Z,990.43
2019-02-17T03:34:01.698Z,990.44
2019-02-17T03:35:00.587Z,990.36
2019-02-17T03:36:00.637Z,990.41
2019-02-17T03:37:00.556Z,990.40
2019-02-17T03:38:01.648Z,990.41
2019-02-17T03:39:00.538Z,990.35
2019-02-17T03:40:00.557Z,990.48
2019-02-17T03:41:00.538Z,990.41
2019-02-17T03:42:00.601Z,990.44
2019-02-17T03:43:00.498Z,990.43
2019-02-17T03:44:00.538Z,990.48
2019-02-17T03:45:00.480Z,990.42
2019-02-17T03:46:00.481Z,990.42
2019-02-17T03:47:00.548Z,990.38
2019-02-17T03:48:00.439Z,990.41
2019-02-17T03:49:00.480Z,990.47
2019-02-17T03:50:00.425Z,990.38
2019-02-17T03:51:00.420Z,990.39
2019-02-17T03:52:00.393Z,990.39
2019-02-17T03:53:00.452Z,990.33
2019-02-17T03:54:00.416Z,990.39
2019-02-17T03:55:02.432Z,990.42
2019-02-17T03:56:00.402Z,990.40
2019-02-17T03:57:00.334Z,990.41
2019-02-17T03:58:00.392Z,990.33
2019-02-17T03:59:00.325Z,990.33
2019-02-17T04:00:01.346Z,990.38
2019-02-17T04:01:00.309Z,990.37
2019-02-17T04:02:00.365Z,990.31
2019-02-17T04:03:00.280Z,990.33
2019-02-17T04:04:00.295Z,990.30
2019-02-17T04:05:00.334Z,990.29
2019-02-17T04:06:00.268Z,990.35
2019-02-17T04:07:00.238Z,990.34
2019-02-17T04:08:00.270Z,990.43
2019-02-17T04:09:00.202Z,990.35
2019-02-17T04:10:00.325Z,990.25
2019-02-17T04:11:00.188Z,990.32
2019-02-17T04:12:00.169Z,990.30
2019-02-17T04:13:00.210Z,990.31
2019-02-17T04:14:00.153Z,990.33
2019-02-17T04:15:01.170Z,990.32
2019-02-17T04:16:00.129Z,990.30
2019-02-17T04:17:00.111Z,990.32
2019-02-17T04:18:00.101Z,990.28
2019-02-17T04:19:00.111Z,990.31
2019-02-17T04:20:00.176Z,990.31
2019-02-17T04:21:00.191Z,990.36
2019-02-17T04:22:00.054Z,990.37
2019-02-17T04:23:00.092Z,990.35
2019-02-17T04:24:00.044Z,990.33
2019-02-17T04:25:00.226Z,990.40
2019-02-17T04:26:00.035Z,990.36
2019-02-17T04:27:00.067Z,990.35
2019-02-17T04:28:00.000Z,990.39
2019-02-17T04:29:00.094Z,990.43
2019-02-17T04:29:59.983Z,990.45
2019-02-17T04:31:00.075Z,990.42
2019-02-17T04:31:59.960Z,990.42
2019-02-17T04:32:59.946Z,990.42
2019-02-17T04:34:00.956Z,990.45
2019-02-17T04:34:59.918Z,990.43
2019-02-17T04:36:00.927Z,990.42
2019-02-17T04:36:59.898Z,990.42
2019-02-17T04:37:59.891Z,990.36
2019-02-17T04:38:59.907Z,990.37
2019-02-17T04:39:59.939Z,990.40
2019-02-17T04:40:59.871Z,990.39
2019-02-17T04:41:59.880Z,990.39
2019-02-17T04:42:59.831Z,990.34
2019-02-17T04:43:59.910Z,990.39
2019-02-17T04:44:59.803Z,990.35
2019-02-17T04:45:59.944Z,990.36
2019-02-17T04:46:59.780Z,990.36
2019-02-17T04:47:59.781Z,990.39
2019-02-17T04:48:59.752Z,990.38
2019-02-17T04:49:59.813Z,990.34
2019-02-17T04:50:59.743Z,990.33
2019-02-17T04:51:59.754Z,990.36
2019-02-17T04:52:59.714Z,990.35
2019-02-17T04:53:59.704Z,990.35
2019-02-17T04:54:59.754Z,990.35
2019-02-17T04:55:59.694Z,990.29
2019-02-17T04:56:59.685Z,990.28
2019-02-17T04:57:59.675Z,990.32
2019-02-17T04:58:59.645Z,990.29
2019-02-17T04:59:59.637Z,990.27
2019-02-17T05:00:59.717Z,990.28
2019-02-17T05:01:59.617Z,990.26
2019-02-17T05:02:59.717Z,990.24
2019-02-17T05:03:59.597Z,990.29
2019-02-17T05:05:00.669Z,990.30
2019-02-17T05:05:59.589Z,990.24
2019-02-17T05:06:59.680Z,990.28
2019-02-17T05:07:59.561Z,990.31
2019-02-17T05:08:59.611Z,990.32
2019-02-17T05:09:59.522Z,990.33
2019-02-17T05:11:00.620Z,990.33
2019-02-17T05:11:59.512Z,990.32
2019-02-17T05:12:59.583Z,990.30
2019-02-17T05:13:59.491Z,990.32
2019-02-17T05:14:59.484Z,990.34
2019-02-17T05:15:59.483Z,990.32
2019-02-17T05:16:59.473Z,990.36
2019-02-17T05:17:59.529Z,990.28
2019-02-17T05:18:59.435Z,990.33
2019-02-17T05:19:59.428Z,990.32
2019-02-17T05:20:59.415Z,990.37
2019-02-17T05:21:59.439Z,990.32
2019-02-17T05:22:59.376Z,990.35
2019-02-17T05:23:59.480Z,990.32
2019-02-17T05:24:59.370Z,990.30
2019-02-17T05:25:59.465Z,990.32
2019-02-17T05:26:59.346Z,990.34
2019-02-17T05:27:59.399Z,990.33
2019-02-17T05:28:59.318Z,990.33
2019-02-17T05:29:59.327Z,990.35
2019-02-17T05:30:59.289Z,990.34
2019-02-17T05:31:59.323Z,990.43
2019-02-17T05:32:59.269Z,990.39
2019-02-17T05:33:59.299Z,990.36
2019-02-17T05:34:59.269Z,990.40
2019-02-17T05:35:59.239Z,990.38
2019-02-17T05:36:59.349Z,990.39
2019-02-17T05:37:59.210Z,990.44
2019-02-17T05:38:59.240Z,990.43
2019-02-17T05:39:59.181Z,990.43
2019-02-17T05:40:59.214Z,990.43
2019-02-17T05:41:59.192Z,990.38
2019-02-17T05:43:01.275Z,990.44
2019-02-17T05:43:59.160Z,990.42
2019-02-17T05:44:59.153Z,990.41
2019-02-17T05:45:59.144Z,990.43
2019-02-17T05:46:59.247Z,990.42
2019-02-17T05:47:59.114Z,990.44
2019-02-17T05:48:59.124Z,990.42
2019-02-17T05:49:59.095Z,990.47
2019-02-17T05:50:59.167Z,990.42
2019-02-17T05:51:59.085Z,990.39
2019-02-17T05:52:59.095Z,990.40
2019-02-17T05:53:59.048Z,990.43
2019-02-17T05:55:01.078Z,990.40
2019-02-17T05:55:59.034Z,990.48
2019-02-17T05:56:59.028Z,990.46
2019-02-17T05:57:59.037Z,990.43
2019-02-17T05:58:58.989Z,990.44
2019-02-17T05:59:59.068Z,990.38
2019-02-17T06:01:03.703Z,990.43
2019-02-17T06:01:59.958Z,990.44
2019-02-17T06:02:58.964Z,990.47
2019-02-17T06:03:59.043Z,990.45
2019-02-17T06:04:58.930Z,990.49
2019-02-17T06:05:58.981Z,990.45
2019-02-17T06:06:58.915Z,990.45
2019-02-17T06:07:58.919Z,990.41
2019-02-17T06:08:58.873Z,990.50
2019-02-17T06:09:58.951Z,990.43
2019-02-17T06:10:58.852Z,990.54
2019-02-17T06:12:00.874Z,990.49
2019-02-17T06:12:58.822Z,990.51
2019-02-17T06:13:58.924Z,990.49
2019-02-17T06:14:58.823Z,990.51
2019-02-17T06:15:59.874Z,990.57
2019-02-17T06:16:58.805Z,990.56
2019-02-17T06:17:58.782Z,990.53
2019-02-17T06:18:58.776Z,990.54
2019-02-17T06:19:58.838Z,990.56
2019-02-17T06:20:58.746Z,990.57
2019-02-17T06:21:58.818Z,990.51
2019-02-17T06:22:58.719Z,990.59
2019-02-17T06:23:58.807Z,990.61
2019-02-17T06:24:58.713Z,990.52
2019-02-17T06:25:58.740Z,990.56
2019-02-17T06:26:58.688Z,990.57
2019-02-17T06:27:58.668Z,990.63
2019-02-17T06:28:58.659Z,990.63
2019-02-17T06:29:58.713Z,990.60
2019-02-17T06:30:58.640Z,990.59
2019-02-17T06:31:59.719Z,990.62
2019-02-17T06:32:58.622Z,990.63
2019-02-17T06:33:58.614Z,990.59
2019-02-17T06:34:59.671Z,990.62
2019-02-17T06:35:58.581Z,990.66
2019-02-17T06:36:58.641Z,990.68
2019-02-17T06:37:58.543Z,990.67
2019-02-17T06:38:58.553Z,990.69
2019-02-17T06:39:58.532Z,990.67
2019-02-17T06:40:58.552Z,990.69
2019-02-17T06:41:58.510Z,990.70
2019-02-17T06:42:58.596Z,990.65
2019-02-17T06:43:59.585Z,990.69
2019-02-17T06:44:58.466Z,990.70
2019-02-17T06:45:58.495Z,990.65
2019-02-17T06:46:58.468Z,990.75
2019-02-17T06:47:58.525Z,990.68
2019-02-17T06:48:58.426Z,990.70
2019-02-17T06:49:58.487Z,990.65
2019-02-17T06:50:58.417Z,990.64
2019-02-17T06:51:58.449Z,990.66
2019-02-17T06:52:58.387Z,990.65
2019-02-17T06:53:58.448Z,990.63
2019-02-17T06:54:58.375Z,990.68
2019-02-17T06:55:58.378Z,990.64
2019-02-17T06:56:58.369Z,990.64
2019-02-17T06:57:58.419Z,990.60
2019-02-17T06:58:58.331Z,990.63
2019-02-17T06:59:58.320Z,990.63
2019-02-17T07:00:58.401Z,990.63
2019-02-17T07:01:58.326Z,990.62
2019-02-17T07:02:58.352Z,990.56
2019-02-17T07:03:58.316Z,990.63
2019-02-17T07:04:58.252Z,990.59
2019-02-17T07:05:58.334Z,990.60
2019-02-17T07:06:58.273Z,990.61
2019-02-17T07:07:58.244Z,990.59
2019-02-17T07:08:58.263Z,990.60
2019-02-17T07:09:58.208Z,990.60
2019-02-17T07:10:58.295Z,990.56
2019-02-17T07:11:58.201Z,990.53
2019-02-17T07:12:58.214Z,990.59
2019-02-17T07:13:58.166Z,990.59
2019-02-17T07:14:58.266Z,990.54
2019-02-17T07:15:58.136Z,990.55
2019-02-17T07:16:59.166Z,990.59
2019-02-17T07:17:59.161Z,990.53
2019-02-17T07:18:58.137Z,990.58
2019-02-17T07:19:58.089Z,990.53
2019-02-17T07:20:58.078Z,990.56
2019-02-17T07:21:58.138Z,990.54
2019-02-17T07:22:58.071Z,990.53
2019-02-17T07:23:58.079Z,990.52
2019-02-17T07:24:58.029Z,990.54
2019-02-17T07:25:58.011Z,990.55
2019-02-17T07:26:58.011Z,990.48
2019-02-17T07:27:58.100Z,990.54
2019-02-17T07:28:57.991Z,990.53
2019-02-17T07:29:58.081Z,990.55
2019-02-17T07:30:58.052Z,990.50
2019-02-17T07:31:57.962Z,990.50
2019-02-17T07:32:58.033Z,990.49
2019-02-17T07:33:57.946Z,990.49
2019-02-17T07:34:59.738Z,990.46
2019-02-17T07:35:57.928Z,990.44
2019-02-17T07:36:57.964Z,990.43
2019-02-17T07:37:57.915Z,990.48
2019-02-17T07:38:57.895Z,990.48
2019-02-17T07:39:57.865Z,990.49
2019-02-17T07:40:57.870Z,990.48
2019-02-17T07:41:57.845Z,990.52
2019-02-17T07:42:57.920Z,990.48
2019-02-17T07:43:57.837Z,990.49
2019-02-17T07:44:57.919Z,990.47
2019-02-17T07:45:57.818Z,990.47
2019-02-17T07:46:58.868Z,990.42
2019-02-17T07:47:57.808Z,990.43
2019-02-17T07:48:58.798Z,990.42
2019-02-17T07:49:57.759Z,990.47
2019-02-17T07:50:57.809Z,990.47
2019-02-17T07:51:57.749Z,990.49
2019-02-17T07:52:57.780Z,990.44
2019-02-17T07:53:57.731Z,990.45
2019-02-17T07:54:57.797Z,990.44
2019-02-17T07:55:57.693Z,990.43
2019-02-17T07:56:57.675Z,990.44
2019-02-17T07:57:57.742Z,990.41
2019-02-17T07:58:57.674Z,990.39
2019-02-17T07:59:57.713Z,990.38
2019-02-17T08:00:57.644Z,990.40
2019-02-17T08:01:57.623Z,990.38
2019-02-17T08:02:57.637Z,990.37
2019-02-17T08:03:57.709Z,990.39
2019-02-17T08:04:57.596Z,990.37
2019-02-17T08:05:57.635Z,990.41
2019-02-17T08:06:57.575Z,990.35
2019-02-17T08:07:57.608Z,990.32
2019-02-17T08:08:57.556Z,990.29
2019-02-17T08:09:57.596Z,990.27
2019-02-17T08:11:04.014Z,990.28
2019-02-17T08:11:58.558Z,990.27
2019-02-17T08:12:57.538Z,990.27
2019-02-17T08:13:57.569Z,990.27
2019-02-17T08:14:57.520Z,990.23
2019-02-17T08:15:57.513Z,990.24
2019-02-17T08:16:57.471Z,990.21
2019-02-17T08:17:57.469Z,990.25
2019-02-17T08:18:57.449Z,990.19
2019-02-17T08:19:57.481Z,990.19
2019-02-17T08:20:57.420Z,990.23
2019-02-17T08:21:58.443Z,990.21
2019-02-17T08:22:57.424Z,990.15
2019-02-17T08:23:57.402Z,990.14
2019-02-17T08:24:58.442Z,990.12
2019-02-17T08:25:57.373Z,990.12
2019-02-17T08:26:58.364Z,990.13
2019-02-17T08:27:57.364Z,990.09
2019-02-17T08:28:57.395Z,990.09
2019-02-17T08:29:57.338Z,990.07
2019-02-17T08:30:58.344Z,990.07
2019-02-17T08:31:57.305Z,990.03
2019-02-17T08:32:57.415Z,990.06
2019-02-17T08:33:57.285Z,990.03
2019-02-17T08:34:57.299Z,989.96
2019-02-17T08:35:57.257Z,989.92
2019-02-17T08:36:57.330Z,989.99
2019-02-17T08:37:57.247Z,989.93
2019-02-17T08:38:57.223Z,989.99
2019-02-17T08:39:57.208Z,989.87
2019-02-17T08:40:57.308Z,989.93
2019-02-17T08:41:57.189Z,989.86
2019-02-17T08:42:57.279Z,989.87
2019-02-17T08:43:58.240Z,989.89
2019-02-17T08:44:57.160Z,989.87
2019-02-17T08:45:58.161Z,989.83
2019-02-17T08:46:57.132Z,989.82
2019-02-17T08:47:57.221Z,989.80
2019-02-17T08:48:57.121Z,989.81
2019-02-17T08:49:57.122Z,989.80
2019-02-17T08:50:57.093Z,989.82
2019-02-17T08:51:57.163Z,989.76
2019-02-17T08:52:57.085Z,989.82
2019-02-17T08:53:57.084Z,989.74
2019-02-17T08:54:57.163Z,989.79
2019-02-17T08:55:57.044Z,989.76
2019-02-17T08:56:57.095Z,989.73
2019-02-17T08:57:57.026Z,989.74
2019-02-17T08:58:57.036Z,989.69
2019-02-17T08:59:57.002Z,989.71
2019-02-17T09:00:56.986Z,989.69
2019-02-17T09:02:05.555Z,989.71
2019-02-17T09:02:57.968Z,989.63
2019-02-17T09:03:56.967Z,989.63
2019-02-17T09:04:57.048Z,989.68
2019-02-17T09:05:56.929Z,989.61
2019-02-17T09:06:56.978Z,989.62
2019-02-17T09:07:56.922Z,989.61
2019-02-17T09:08:56.910Z,989.61
2019-02-17T09:09:56.871Z,989.61
2019-02-17T09:10:56.953Z,989.61
2019-02-17T09:11:56.862Z,989.60
2019-02-17T09:12:57.953Z,989.63
2019-02-17T09:13:56.842Z,989.61
2019-02-17T09:14:56.922Z,989.65
2019-02-17T09:15:56.802Z,989.61
2019-02-17T09:16:56.853Z,989.55
2019-02-17T09:17:56.796Z,989.54
2019-02-17T09:18:56.893Z,989.60
2019-02-17T09:19:56.777Z,989.58
2019-02-17T09:20:56.754Z,989.57
2019-02-17T09:21:56.795Z,989.57
2019-02-17T09:22:56.726Z,989.53
2019-02-17T09:23:56.768Z,989.51
2019-02-17T09:24:56.706Z,989.53
2019-02-17T09:25:56.696Z,989.50
2019-02-17T09:26:56.677Z,989.49
2019-02-17T09:27:56.711Z,989.49
2019-02-17T09:28:56.698Z,989.44
2019-02-17T09:29:56.738Z,989.46
2019-02-17T09:30:56.642Z,989.45
2019-02-17T09:31:56.671Z,989.45
2019-02-17T09:32:56.619Z,989.44
2019-02-17T09:33:56.674Z,989.48
2019-02-17T09:34:56.658Z,989.42
2019-02-17T09:35:57.661Z,989.41
2019-02-17T09:36:56.563Z,989.37
2019-02-17T09:37:56.691Z,989.40
2019-02-17T09:38:56.572Z,989.34
2019-02-17T09:39:56.622Z,989.35
2019-02-17T09:40:56.533Z,989.40
2019-02-17T09:41:56.524Z,989.32
2019-02-17T09:42:56.624Z,989.29
2019-02-17T09:43:56.515Z,989.30
2019-02-17T09:44:56.565Z,989.34
2019-02-17T09:45:56.479Z,989.34
2019-02-17T09:46:56.456Z,989.35
2019-02-17T09:47:56.456Z,989.31
2019-02-17T09:48:56.488Z,989.28
2019-02-17T09:49:56.437Z,989.24
2019-02-17T09:50:56.466Z,989.26
2019-02-17T09:51:56.398Z,989.30
2019-02-17T09:52:57.428Z,989.21
2019-02-17T09:53:56.398Z,989.22
2019-02-17T09:54:56.440Z,989.22
2019-02-17T09:55:56.369Z,989.23
2019-02-17T09:56:56.370Z,989.23
2019-02-17T09:57:56.339Z,989.19
2019-02-17T09:58:56.361Z,989.21
2019-02-17T09:59:56.311Z,989.18
2019-02-17T10:00:56.352Z,989.21
2019-02-17T10:01:56.302Z,989.21
2019-02-17T10:02:56.272Z,989.12
2019-02-17T10:03:56.393Z,989.17
2019-02-17T10:04:56.254Z,989.19
2019-02-17T10:05:56.283Z,989.24
2019-02-17T10:06:56.234Z,989.16
2019-02-17T10:07:56.235Z,989.15
2019-02-17T10:08:56.334Z,989.13
2019-02-17T10:09:56.195Z,989.16
2019-02-17T10:10:56.216Z,989.13
2019-02-17T10:11:56.176Z,989.14
2019-02-17T10:12:56.176Z,989.16
2019-02-17T10:13:56.177Z,989.17
2019-02-17T10:14:56.198Z,989.17
2019-02-17T10:15:56.117Z,989.17
2019-02-17T10:16:56.229Z,989.14
2019-02-17T10:17:56.109Z,989.18
2019-02-17T10:18:56.199Z,989.12
2019-02-17T10:19:56.067Z,989.10
2019-02-17T10:20:56.100Z,989.06
2019-02-17T10:21:56.051Z,989.12
2019-02-17T10:22:56.133Z,989.05
2019-02-17T10:23:56.045Z,989.01
2019-02-17T10:24:57.092Z,989.08
2019-02-17T10:25:56.651Z,989.09
2019-02-17T10:26:56.104Z,989.10
2019-02-17T10:27:55.993Z,989.00
2019-02-17T10:28:56.004Z,988.99
2019-02-17T10:29:55.986Z,989.02
2019-02-17T10:30:56.086Z,989.01
2019-02-17T10:31:55.965Z,988.97
2019-02-17T10:32:56.026Z,989.00
2019-02-17T10:33:55.958Z,989.02
2019-02-17T10:34:55.966Z,988.98
2019-02-17T10:35:55.897Z,988.97
2019-02-17T10:36:55.998Z,988.94
2019-02-17T10:37:55.897Z,988.87
2019-02-17T10:38:58.555Z,988.89
2019-02-17T10:39:55.868Z,988.90
2019-02-17T10:40:55.969Z,988.84
2019-02-17T10:41:55.840Z,988.78
2019-02-17T10:42:55.903Z,988.81
2019-02-17T10:43:55.830Z,988.78
2019-02-17T10:44:55.812Z,988.77
2019-02-17T10:45:55.801Z,988.75
2019-02-17T10:46:55.938Z,988.74
2019-02-17T10:47:55.782Z,988.75
2019-02-17T10:48:55.852Z,988.74
2019-02-17T10:49:55.767Z,988.71
2019-02-17T10:50:55.843Z,988.73
2019-02-17T10:51:55.734Z,988.70
2019-02-17T10:52:55.774Z,988.71
2019-02-17T10:53:55.725Z,988.67
2019-02-17T10:54:55.726Z,988.69
2019-02-17T10:55:55.697Z,988.74
2019-02-17T10:56:55.759Z,988.71
2019-02-17T10:57:55.666Z,988.71
2019-02-17T10:58:56.760Z,988.67
2019-02-17T10:59:56.092Z,988.62
2019-02-17T11:00:55.628Z,988.60
2019-02-17T11:01:55.689Z,988.61
2019-02-17T11:02:55.608Z,988.57
2019-02-17T11:03:55.670Z,988.60
2019-02-17T11:04:55.579Z,988.57
2019-02-17T11:05:55.580Z,988.55
2019-02-17T11:06:55.630Z,988.53
2019-02-17T11:07:55.553Z,988.52
2019-02-17T11:08:55.611Z,988.55
2019-02-17T11:09:55.532Z,988.55
2019-02-17T11:10:55.525Z,988.44
2019-02-17T11:11:56.592Z,988.49
2019-02-17T11:12:55.493Z,988.44
2019-02-17T11:13:57.593Z,988.44
2019-02-17T11:14:55.475Z,988.43
2019-02-17T11:15:55.465Z,988.42
2019-02-17T11:16:55.445Z,988.41
2019-02-17T11:17:56.505Z,988.35
2019-02-17T11:18:55.448Z,988.33
2019-02-17T11:19:55.536Z,988.31
2019-02-17T11:20:55.380Z,988.26
2019-02-17T11:21:55.397Z,988.29
2019-02-17T11:22:55.418Z,988.28
2019-02-17T11:23:55.414Z,988.28
2019-02-17T11:24:57.656Z,988.25
2019-02-17T11:25:55.363Z,988.20
2019-02-17T11:26:55.351Z,988.17
2019-02-17T11:27:55.331Z,988.17
2019-02-17T11:28:55.432Z,988.16
2019-02-17T11:29:55.321Z,988.21
2019-02-17T11:30:55.371Z,988.16
2019-02-17T11:31:55.333Z,988.21
2019-02-17T11:32:58.250Z,988.22
2019-02-17T11:33:55.274Z,988.20
2019-02-17T11:34:55.270Z,988.14
2019-02-17T11:35:57.355Z,988.13
2019-02-17T11:36:55.274Z,988.17
2019-02-17T11:37:55.215Z,988.09
2019-02-17T11:38:57.255Z,988.09
2019-02-17T11:39:55.216Z,988.09
2019-02-17T11:40:55.246Z,988.07
2019-02-17T11:41:55.178Z,988.06
2019-02-17T11:42:55.177Z,988.05
2019-02-17T11:43:55.158Z,988.00
2019-02-17T11:44:55.268Z,988.01
2019-02-17T11:45:55.139Z,988.06
2019-02-17T11:46:55.160Z,988.03
2019-02-17T11:47:55.109Z,988.01
2019-02-17T11:48:55.190Z,988.00
2019-02-17T11:49:55.084Z,987.99
2019-02-17T11:50:55.121Z,987.91
2019-02-17T11:51:55.063Z,987.94
2019-02-17T11:52:55.043Z,987.98
2019-02-17T11:53:55.124Z,987.92
2019-02-17T11:54:55.044Z,987.93
2019-02-17T11:55:56.095Z,987.93
2019-02-17T11:56:55.018Z,987.86
2019-02-17T11:57:54.987Z,987.84
2019-02-17T11:58:55.064Z,987.90
2019-02-17T11:59:54.985Z,987.91
2019-02-17T12:00:55.006Z,987.89
2019-02-17T12:01:54.946Z,987.89
2019-02-17T12:02:54.938Z,987.85
2019-02-17T12:03:56.027Z,987.83
2019-02-17T12:04:54.938Z,987.82
2019-02-17T12:05:54.970Z,987.75
2019-02-17T12:06:54.889Z,987.78
2019-02-17T12:07:54.879Z,987.79
2019-02-17T12:08:54.870Z,987.76
2019-02-17T12:09:54.984Z,987.71
2019-02-17T12:10:54.824Z,987.70
2019-02-17T12:11:55.771Z,987.65
2019-02-17T12:12:56.132Z,987.63
2019-02-17T12:13:54.814Z,987.61
2019-02-17T12:14:54.893Z,987.62
2019-02-17T12:15:54.783Z,987.56
2019-02-17T12:16:54.884Z,987.56
2019-02-17T12:17:54.854Z,987.62
2019-02-17T12:18:54.773Z,987.57
2019-02-17T12:19:55.006Z,987.51
2019-02-17T12:20:54.745Z,987.53
2019-02-17T12:21:54.846Z,987.52
2019-02-17T12:22:54.706Z,987.56
2019-02-17T12:23:55.697Z,987.49
2019-02-17T12:24:54.717Z,987.44
2019-02-17T12:25:54.698Z,987.52
2019-02-17T12:26:54.669Z,987.44
2019-02-17T12:27:54.661Z,987.44